Time;durP1;ratioP1;P1;durP2;ratioP2;P2;SDS_P1;SDS_P2;PMS_P1;PMS_P2;Temp;Humidity;BMP_temperature;BMP_pressure;BME280_temperature;BME280_humidity;BME280_pressure;Samples;Min_cycle;Max_cycle;Signal;HPM_P1;HPM_P2
2023/01/31 00:01:20;;;;;;;4.30;3.05;;;4.30;99.90;;;;;;5072234;28;20078;-67
2023/01/31 00:03:47;;;;;;;5.53;3.10;;;4.30;99.90;;;;;;5072905;28;20027;-67
2023/01/31 00:06:16;;;;;;;5.10;2.67;;;4.30;99.90;;;;;;5072508;28;20441;-68
2023/01/31 00:08:42;;;;;;;5.20;3.15;;;4.30;99.90;;;;;;5072501;28;20385;-68
2023/01/31 00:11:09;;;;;;;5.82;2.63;;;4.20;99.90;;;;;;5072748;28;20124;-67
2023/01/31 00:13:35;;;;;;;4.28;2.55;;;4.20;99.90;;;;;;5071199;28;20061;-68
2023/01/31 00:16:01;;;;;;;4.00;2.38;;;4.10;99.90;;;;;;5072834;28;20095;-67
2023/01/31 00:18:27;;;;;;;7.03;2.88;;;4.10;99.90;;;;;;5072360;28;20108;-67
2023/01/31 00:20:53;;;;;;;6.25;2.50;;;4.10;99.90;;;;;;5072763;28;20044;-67
2023/01/31 00:23:18;;;;;;;4.57;2.75;;;4.10;99.90;;;;;;5071988;28;20028;-67
2023/01/31 00:25:45;;;;;;;3.60;2.38;;;4.10;99.90;;;;;;5072908;28;20112;-67
2023/01/31 00:28:10;;;;;;;5.10;2.92;;;4.10;99.90;;;;;;5072369;28;20457;-67
2023/01/31 00:30:36;;;;;;;5.82;2.50;;;4.10;99.90;;;;;;5072234;28;20063;-67
2023/01/31 00:33:02;;;;;;;4.88;3.03;;;4.10;99.90;;;;;;5072648;28;20382;-67
2023/01/31 00:35:27;;;;;;;4.63;2.92;;;4.10;99.90;;;;;;5072215;28;20361;-67
2023/01/31 00:37:53;;;;;;;5.13;3.20;;;4.10;99.90;;;;;;5072343;28;20389;-67
2023/01/31 00:40:19;;;;;;;9.30;3.50;;;4.10;99.90;;;;;;5072052;28;20045;-67
2023/01/31 00:42:45;;;;;;;5.85;3.38;;;4.10;99.90;;;;;;5072246;28;20442;-67
2023/01/31 00:45:11;;;;;;;5.97;3.45;;;4.10;99.90;;;;;;5072432;28;20142;-67
2023/01/31 00:47:36;;;;;;;5.75;3.30;;;4.10;99.90;;;;;;5072147;28;20024;-67
2023/01/31 00:50:03;;;;;;;4.97;3.33;;;4.10;99.90;;;;;;5072185;28;20033;-67
2023/01/31 00:52:29;;;;;;;7.20;3.28;;;4.10;99.90;;;;;;5071736;28;20024;-67
2023/01/31 00:54:55;;;;;;;6.57;4.10;;;4.10;99.90;;;;;;5072315;28;20449;-67
2023/01/31 00:57:20;;;;;;;7.40;3.83;;;4.10;99.90;;;;;;5070662;28;20055;-67
2023/01/31 00:59:46;;;;;;;8.20;3.88;;;4.20;99.90;;;;;;5072392;28;20370;-67
2023/01/31 01:02:12;;;;;;;6.03;3.95;;;4.10;99.90;;;;;;5071962;28;20112;-66
2023/01/31 01:04:37;;;;;;;9.45;3.95;;;4.20;99.90;;;;;;5073766;28;20039;-66
2023/01/31 01:07:03;;;;;;;7.55;3.80;;;4.20;99.90;;;;;;5076011;28;20029;-66
2023/01/31 01:09:29;;;;;;;6.55;3.65;;;4.20;99.90;;;;;;5075593;28;20421;-67
2023/01/31 01:11:54;;;;;;;6.95;3.55;;;4.20;99.90;;;;;;5076121;28;20400;-66
2023/01/31 01:14:20;;;;;;;7.38;3.70;;;4.30;99.90;;;;;;5075810;28;20051;-67
2023/01/31 01:16:46;;;;;;;7.40;3.63;;;4.30;99.90;;;;;;5075927;28;20457;-67
2023/01/31 01:19:15;;;;;;;7.13;3.22;;;4.30;99.90;;;;;;5076436;28;20381;-67
2023/01/31 01:21:43;;;;;;;7.43;3.25;;;4.30;99.90;;;;;;5075568;28;20066;-67
2023/01/31 01:24:17;;;;;;;5.93;3.00;;;4.30;99.90;;;;;;5075761;28;20473;-67
2023/01/31 01:26:44;;;;;;;6.50;3.38;;;4.30;99.90;;;;;;5074704;28;20035;-67
2023/01/31 01:29:11;;;;;;;7.10;2.85;;;4.40;99.90;;;;;;5078325;28;20028;-66
2023/01/31 01:31:38;;;;;;;8.80;3.33;;;4.40;99.90;;;;;;5075286;28;20040;-66
2023/01/31 01:34:11;;;;;;;9.10;2.85;;;4.40;99.90;;;;;;5075517;28;20025;-66
2023/01/31 01:36:37;;;;;;;5.03;3.00;;;4.40;99.90;;;;;;5077406;28;20040;-67
2023/01/31 01:39:06;;;;;;;6.13;3.05;;;4.40;99.90;;;;;;5079986;28;20031;-67
2023/01/31 01:41:34;;;;;;;5.97;3.25;;;4.30;99.90;;;;;;5076513;28;20056;-66
2023/01/31 01:44:03;;;;;;;9.10;3.33;;;4.30;99.90;;;;;;5075666;28;20031;-66
2023/01/31 01:46:31;;;;;;;6.38;3.45;;;4.40;99.90;;;;;;5075119;28;20028;-66
2023/01/31 01:49:11;;;;;;;5.38;3.10;;;4.30;99.90;;;;;;5075500;28;20027;-66
2023/01/31 01:51:38;;;;;;;9.30;3.70;;;4.30;99.90;;;;;;5075073;28;20115;-67
2023/01/31 01:54:09;;;;;;;5.95;3.22;;;4.30;99.90;;;;;;5075192;28;20128;-67
2023/01/31 01:56:41;;;;;;;6.03;3.60;;;4.30;99.90;;;;;;5075072;28;20115;-67
2023/01/31 01:59:14;;;;;;;8.80;4.10;;;4.30;99.90;;;;;;5075115;28;20033;-67
2023/01/31 02:01:39;;;;;;;8.13;4.03;;;4.30;99.90;;;;;;5074921;28;20060;-67
2023/01/31 02:04:09;;;;;;;5.47;3.22;;;4.30;99.90;;;;;;5075751;28;20432;-67
2023/01/31 02:06:35;;;;;;;8.65;3.40;;;4.30;99.90;;;;;;5074814;28;20504;-67
2023/01/31 02:09:05;;;;;;;6.38;3.25;;;4.30;99.90;;;;;;5075162;28;20049;-67
2023/01/31 02:11:31;;;;;;;6.10;3.63;;;4.40;99.90;;;;;;5074857;28;20090;-67
2023/01/31 02:14:03;;;;;;;6.22;3.13;;;4.30;99.90;;;;;;5075439;28;20032;-67
2023/01/31 02:16:29;;;;;;;7.55;3.95;;;4.30;99.90;;;;;;5073904;28;20078;-67
2023/01/31 02:18:56;;;;;;;6.50;3.58;;;4.20;99.90;;;;;;5074954;28;20025;-67
2023/01/31 02:21:28;;;;;;;5.90;3.20;;;4.20;99.90;;;;;;5074515;28;20032;-71
2023/01/31 02:23:59;;;;;;;8.55;3.72;;;4.20;99.90;;;;;;5074777;28;20067;-67
2023/01/31 02:27:02;;;;;;;4.50;3.38;;;4.10;99.90;;;;;;5074094;28;20044;-67
2023/01/31 02:29:33;;;;;;;6.88;3.08;;;4.10;99.90;;;;;;5074470;28;20032;-67
2023/01/31 02:32:56;;;;;;;6.53;3.35;;;4.10;99.90;;;;;;5074487;28;20104;-67
2023/01/31 02:35:46;;;;;;;6.90;4.00;;;4.10;99.90;;;;;;5032355;28;20067;-67
2023/01/31 02:38:30;;;;;;;10.00;4.47;;;4.10;99.90;;;;;;5032584;28;20116;-67
2023/01/31 02:41:23;;;;;;;11.25;4.78;;;4.10;99.90;;;;;;5032369;28;20375;-67
2023/01/31 02:47:08;;;;;;;7.18;4.00;;;4.00;99.90;;;;;;5032104;28;20119;-68
2023/01/31 02:49:45;;;;;;;9.38;4.07;;;4.00;99.90;;;;;;4994647;28;20486;-68
2023/01/31 02:52:38;;;;;;;8.13;3.78;;;3.90;99.90;;;;;;5032269;28;20171;-68
2023/01/31 02:58:13;;;;;;;8.40;3.90;;;4.00;99.90;;;;;;5032283;28;20438;-67
2023/01/31 03:00:42;;;;;;;8.52;4.30;;;4.00;99.90;;;;;;5031523;28;20045;-66
2023/01/31 03:03:32;;;;;;;7.07;3.38;;;4.00;99.90;;;;;;5031901;28;20069;-66
2023/01/31 03:06:22;;;;;;;6.80;3.42;;;4.00;99.90;;;;;;5041537;28;20049;-66
2023/01/31 03:09:20;;;;;;;12.07;4.68;;;4.00;99.90;;;;;;5053743;28;20048;-66
2023/01/31 03:12:19;;;;;;;7.70;3.35;;;4.10;99.90;;;;;;5053572;28;20048;-67
2023/01/31 03:15:21;;;;;;;6.40;3.40;;;4.10;99.90;;;;;;5032043;28;20044;-66
2023/01/31 03:17:55;;;;;;;9.23;3.30;;;4.10;99.90;;;;;;5046647;28;20119;-66
2023/01/31 03:20:53;;;;;;;8.25;3.50;;;4.20;99.90;;;;;;5046996;28;20025;-66
2023/01/31 03:23:21;;;;;;;4.43;3.22;;;4.20;99.90;;;;;;5033971;28;20059;-67
2023/01/31 03:25:48;;;;;;;5.20;2.88;;;4.20;99.90;;;;;;5033713;28;20057;-67
2023/01/31 03:28:19;;;;;;;5.57;3.13;;;4.20;99.90;;;;;;5032962;28;20083;-66
2023/01/31 03:31:04;;;;;;;;;;;4.30;99.90;;;;;;5033769;28;20037;-67
2023/01/31 03:33:39;;;;;;;4.82;2.60;;;4.30;99.90;;;;;;5035795;28;19952;-66
2023/01/31 03:36:16;;;;;;;7.25;2.63;;;4.30;99.90;;;;;;5033759;28;20029;-66
2023/01/31 03:38:57;;;;;;;8.63;3.17;;;4.30;99.90;;;;;;5032932;28;20428;-66
2023/01/31 03:41:55;;;;;;;6.45;2.60;;;4.30;99.90;;;;;;5064451;28;20063;-66
2023/01/31 03:44:35;;;;;;;4.25;2.45;;;4.30;99.90;;;;;;5069876;28;20051;-67
2023/01/31 03:47:12;;;;;;;7.43;2.45;;;4.30;99.90;;;;;;5073296;28;20016;-66
2023/01/31 03:49:41;;;;;;;6.85;2.80;;;4.40;99.90;;;;;;5071685;28;20382;-67
2023/01/31 03:52:10;;;;;;;7.72;2.67;;;4.40;99.80;;;;;;5073125;28;20025;-66
2023/01/31 03:54:40;;;;;;;4.88;2.45;;;4.40;99.70;;;;;;5072582;28;20059;-66
2023/01/31 03:57:29;;;;;;;6.63;2.77;;;4.40;99.50;;;;;;5073310;28;20024;-66
2023/01/31 03:59:58;;;;;;;5.03;2.45;;;4.40;99.30;;;;;;5073146;28;20509;-67
2023/01/31 04:02:32;;;;;;;4.70;2.50;;;4.40;98.70;;;;;;5073260;28;20116;-67
2023/01/31 04:05:11;;;;;;;4.30;2.35;;;4.50;98.40;;;;;;5073197;28;20082;-66
2023/01/31 04:07:37;;;;;;;4.00;2.17;;;4.50;97.90;;;;;;5072693;28;20419;-67
2023/01/31 04:10:11;;;;;;;4.90;2.15;;;4.50;97.60;;;;;;5072974;28;20076;-66
2023/01/31 04:12:37;;;;;;;3.65;2.10;;;4.50;97.40;;;;;;5072566;28;20024;-66
2023/01/31 04:15:06;;;;;;;5.32;2.40;;;4.60;97.10;;;;;;5072928;28;20096;-66
2023/01/31 04:17:32;;;;;;;4.22;2.35;;;4.60;97.00;;;;;;5072533;28;20059;-68
2023/01/31 04:19:58;;;;;;;4.13;2.35;;;4.60;97.00;;;;;;5072553;28;20060;-66
2023/01/31 04:22:24;;;;;;;5.40;2.08;;;4.60;96.80;;;;;;5072837;28;20025;-67
2023/01/31 04:24:50;;;;;;;4.63;1.92;;;4.60;96.50;;;;;;5072398;28;20029;-67
2023/01/31 04:27:16;;;;;;;8.30;2.60;;;4.60;96.00;;;;;;5072567;28;20039;-67
2023/01/31 04:29:41;;;;;;;4.18;1.95;;;4.60;95.70;;;;;;5072236;28;20100;-67
2023/01/31 04:32:07;;;;;;;5.80;1.80;;;4.60;95.80;;;;;;5072771;28;20035;-68
2023/01/31 04:34:33;;;;;;;3.95;1.70;;;4.60;95.70;;;;;;5072067;28;20040;-68
2023/01/31 04:36:58;;;;;;;3.55;1.98;;;4.60;95.50;;;;;;5072320;28;20100;-67
2023/01/31 04:39:24;;;;;;;3.65;2.00;;;4.60;95.60;;;;;;5072078;28;20025;-68
2023/01/31 04:41:50;;;;;;;5.07;1.90;;;4.60;95.50;;;;;;5070552;28;20048;-67
2023/01/31 04:44:15;;;;;;;6.82;2.38;;;4.70;95.50;;;;;;5072544;28;20028;-67
2023/01/31 04:46:41;;;;;;;5.03;2.40;;;4.60;95.90;;;;;;5072099;28;20025;-68
2023/01/31 04:49:08;;;;;;;9.20;2.83;;;4.60;96.10;;;;;;5072460;28;20107;-67
2023/01/31 04:51:33;;;;;;;6.30;2.50;;;4.60;96.20;;;;;;5071931;28;20036;-68
2023/01/31 04:53:59;;;;;;;5.72;2.13;;;4.60;96.40;;;;;;5072739;28;20028;-68
2023/01/31 04:56:25;;;;;;;5.90;2.53;;;4.60;96.70;;;;;;5072317;28;20086;-68
2023/01/31 04:58:51;;;;;;;5.82;2.53;;;4.60;96.80;;;;;;5071748;28;20021;-67
2023/01/31 05:01:16;;;;;;;11.73;2.40;;;4.60;96.80;;;;;;5077754;28;20028;-67
2023/01/31 05:03:42;;;;;;;3.58;2.22;;;4.60;96.70;;;;;;5076741;28;20028;-68
2023/01/31 05:06:08;;;;;;;4.30;2.25;;;4.60;96.50;;;;;;5072676;28;20028;-67
2023/01/31 05:08:34;;;;;;;5.47;2.40;;;4.60;96.30;;;;;;5071957;28;20031;-72
2023/01/31 05:11:05;;;;;;;4.15;2.20;;;4.60;96.10;;;;;;5072365;28;20032;-67
2023/01/31 05:13:32;;;;;;;7.82;2.55;;;4.60;96.10;;;;;;5072011;28;20390;-67
2023/01/31 05:15:57;;;;;;;6.55;2.50;;;4.60;96.10;;;;;;5071585;28;20469;-67
2023/01/31 05:18:24;;;;;;;5.70;2.10;;;4.60;96.10;;;;;;5072163;28;20031;-67
2023/01/31 05:20:50;;;;;;;8.02;2.45;;;4.70;96.10;;;;;;5086792;28;20130;-68
2023/01/31 05:23:16;;;;;;;4.47;2.13;;;4.60;95.80;;;;;;5092356;28;20020;-67
2023/01/31 05:25:43;;;;;;;4.25;2.20;;;4.60;95.90;;;;;;5091876;28;20409;-68
2023/01/31 05:28:10;;;;;;;5.90;2.25;;;4.60;95.80;;;;;;5091941;28;20469;-67
2023/01/31 05:30:36;;;;;;;8.15;2.38;;;4.60;95.70;;;;;;5081256;28;20470;-71
2023/01/31 05:33:01;;;;;;;6.50;1.90;;;4.50;95.60;;;;;;5071999;28;20031;-67
2023/01/31 05:35:27;;;;;;;4.82;1.98;;;4.50;95.10;;;;;;5072123;28;20021;-66
2023/01/31 05:37:54;;;;;;;2.38;1.20;;;4.50;94.60;;;;;;5071611;28;20453;-67
2023/01/31 05:40:20;;;;;;;4.88;1.60;;;4.50;93.60;;;;;;5071632;28;20049;-67
2023/01/31 05:42:53;;;;;;;4.22;1.15;;;4.60;92.30;;;;;;5071464;28;20025;-67
2023/01/31 05:45:19;;;;;;;3.05;1.23;;;4.60;92.00;;;;;;5070916;28;20170;-67
2023/01/31 05:47:46;;;;;;;3.60;1.58;;;4.60;91.90;;;;;;5071536;28;20052;-67
2023/01/31 05:50:12;;;;;;;4.57;1.95;;;4.70;91.30;;;;;;5072428;28;20115;-66
2023/01/31 05:52:38;;;;;;;4.30;1.20;;;4.80;90.50;;;;;;5075167;28;20416;-69
2023/01/31 05:55:04;;;;;;;2.40;1.15;;;4.80;90.10;;;;;;5075396;28;20021;-66
2023/01/31 05:57:30;;;;;;;4.97;1.85;;;4.90;89.40;;;;;;5075242;28;20040;-67
2023/01/31 05:59:56;;;;;;;3.92;1.10;;;4.90;88.80;;;;;;5074852;28;20074;-68
2023/01/31 06:02:22;;;;;;;3.15;1.08;;;5.00;88.30;;;;;;5074900;28;20056;-67
2023/01/31 06:04:48;;;;;;;6.07;1.67;;;4.90;88.70;;;;;;5074721;28;20028;-67
2023/01/31 06:07:14;;;;;;;4.45;1.20;;;4.90;89.00;;;;;;5075220;28;20032;-67
2023/01/31 06:09:40;;;;;;;6.32;1.77;;;4.90;89.10;;;;;;5074856;28;20043;-67
2023/01/31 06:12:11;;;;;;;4.90;1.30;;;5.00;88.50;;;;;;5075058;28;20473;-67
2023/01/31 06:14:37;;;;;;;5.85;1.40;;;4.90;88.80;;;;;;5074928;28;20070;-67
2023/01/31 06:17:03;;;;;;;4.95;2.95;;;5.00;88.60;;;;;;5074513;28;20101;-67
2023/01/31 06:19:28;;;;;;;4.50;1.35;;;4.90;88.90;;;;;;5075050;28;20032;-67
2023/01/31 06:21:54;;;;;;;7.05;2.47;;;4.90;90.00;;;;;;5074584;28;20028;-67
2023/01/31 06:24:20;;;;;;;10.55;2.38;;;4.90;91.30;;;;;;5074850;28;20016;-67
2023/01/31 06:26:46;;;;;;;6.68;2.33;;;4.90;92.30;;;;;;5074450;28;20056;-67
2023/01/31 06:29:12;;;;;;;5.10;2.60;;;4.90;92.80;;;;;;5074494;28;20063;-66
2023/01/31 06:31:37;;;;;;;5.57;2.40;;;4.80;93.40;;;;;;5074783;28;20062;-66
2023/01/31 06:34:03;;;;;;;7.25;3.10;;;4.70;93.80;;;;;;5074282;28;20461;-66
2023/01/31 06:36:32;;;;;;;7.32;2.75;;;4.70;94.00;;;;;;5074700;28;20025;-66
2023/01/31 06:38:58;;;;;;;4.10;2.38;;;4.60;94.40;;;;;;5074184;28;20036;-67
2023/01/31 06:41:24;;;;;;;9.70;2.72;;;4.60;94.50;;;;;;5074305;28;20056;-67
2023/01/31 06:43:51;;;;;;;6.53;2.58;;;4.60;94.40;;;;;;5073937;28;20048;-68
2023/01/31 06:46:17;;;;;;;4.95;2.72;;;4.60;94.50;;;;;;5074283;28;20423;-67
2023/01/31 06:48:43;;;;;;;7.80;2.83;;;4.60;94.40;;;;;;5074153;28;20035;-68
2023/01/31 06:51:09;;;;;;;7.78;2.50;;;4.60;94.20;;;;;;5072923;28;20047;-67
2023/01/31 06:53:35;;;;;;;6.30;2.40;;;4.60;94.10;;;;;;5074303;28;20034;-67
2023/01/31 06:56:00;;;;;;;7.47;2.50;;;4.60;94.00;;;;;;5073928;28;20020;-68
2023/01/31 06:58:27;;;;;;;10.18;2.53;;;4.60;93.90;;;;;;5073929;28;20530;-67
2023/01/31 07:00:52;;;;;;;7.38;2.45;;;4.60;93.90;;;;;;5073364;28;20376;-67
2023/01/31 07:03:18;;;;;;;7.57;2.53;;;4.70;93.70;;;;;;5072967;28;20036;-67
2023/01/31 07:05:47;;;;;;;7.65;2.70;;;4.60;93.90;;;;;;5073514;28;20423;-68
2023/01/31 07:08:13;;;;;;;5.90;2.20;;;4.70;93.50;;;;;;5073841;28;20036;-67
2023/01/31 07:10:39;;;;;;;7.75;2.17;;;4.70;93.00;;;;;;5073750;28;20028;-67
2023/01/31 07:13:04;;;;;;;9.32;2.20;;;4.70;93.10;;;;;;5073540;28;20150;-67
2023/01/31 07:15:30;;;;;;;11.13;2.38;;;4.70;92.80;;;;;;5073500;28;20024;-66
2023/01/31 07:17:58;;;;;;;8.85;2.35;;;4.70;92.70;;;;;;5073739;28;20457;-66
2023/01/31 07:20:23;;;;;;;8.95;2.40;;;4.70;93.00;;;;;;5073794;28;20063;-66
2023/01/31 07:22:59;;;;;;;6.97;2.78;;;4.70;92.60;;;;;;5073242;28;20060;-68
2023/01/31 07:25:25;;;;;;;6.82;2.40;;;4.70;92.50;;;;;;5072298;28;20441;-66
2023/01/31 07:27:51;;;;;;;8.55;2.47;;;4.80;92.00;;;;;;5077663;28;20526;-66
2023/01/31 07:30:17;;;;;;;6.00;2.08;;;4.80;92.00;;;;;;5093361;28;20027;-66
2023/01/31 07:32:43;;;;;;;3.72;2.20;;;4.90;92.10;;;;;;5093646;28;20073;-66
2023/01/31 07:35:09;;;;;;;5.53;2.30;;;4.90;91.70;;;;;;5072917;28;20024;-66
2023/01/31 07:37:34;;;;;;;3.78;1.90;;;4.90;91.50;;;;;;5073488;28;20523;-67
2023/01/31 07:40:00;;;;;;;8.23;2.00;;;5.00;91.10;;;;;;5072652;28;20124;-67
2023/01/31 07:42:27;;;;;;;5.85;2.50;;;4.90;91.10;;;;;;5073191;28;20028;-67
2023/01/31 07:44:53;;;;;;;6.93;2.40;;;5.00;91.20;;;;;;5072951;28;20025;-67
2023/01/31 07:47:19;;;;;;;5.65;2.22;;;5.00;91.40;;;;;;5073183;28;20016;-67
2023/01/31 07:49:45;;;;;;;6.13;2.38;;;5.00;90.70;;;;;;5073350;28;20025;-66
2023/01/31 07:52:10;;;;;;;6.57;1.90;;;5.00;90.50;;;;;;5073164;28;20082;-65
2023/01/31 07:54:36;;;;;;;9.98;2.70;;;5.10;90.00;;;;;;5072999;28;20393;-68
2023/01/31 07:57:02;;;;;;;6.65;2.13;;;5.00;90.00;;;;;;5071190;28;20032;-68
2023/01/31 07:59:27;;;;;;;5.43;1.80;;;5.20;88.90;;;;;;5072889;28;20115;-66
2023/01/31 08:04:37;;;;;;;4.85;1.60;;;5.70;85.40;;;;;;5072744;28;20027;-68
2023/01/31 08:07:05;;;;;;;7.00;1.85;;;6.00;83.10;;;;;;5072135;28;20377;-68
2023/01/31 08:09:31;;;;;;;4.53;1.58;;;6.20;80.60;;;;;;5072891;28;20020;-68
2023/01/31 08:11:57;;;;;;;9.60;1.95;;;6.40;77.60;;;;;;5072421;28;20115;-67
2023/01/31 08:14:24;;;;;;;4.93;1.55;;;6.40;75.60;;;;;;5072305;28;20506;-67
2023/01/31 08:16:51;;;;;;;3.97;1.33;;;6.40;73.60;;;;;;5071201;28;20469;-67
2023/01/31 08:19:16;;;;;;;5.10;1.38;;;6.40;73.60;;;;;;5072725;28;20032;-68
2023/01/31 08:21:42;;;;;;;5.15;1.30;;;6.40;72.50;;;;;;5073172;28;20024;-67
2023/01/31 08:24:08;;;;;;;5.68;1.33;;;6.30;72.30;;;;;;5072779;28;20044;-67
2023/01/31 08:26:34;;;;;;;5.35;1.15;;;6.20;70.80;;;;;;5076074;28;20031;-67
2023/01/31 08:28:59;;;;;;;3.95;1.33;;;6.10;70.40;;;;;;5075613;28;20035;-66
2023/01/31 08:31:26;;;;;;;8.13;1.75;;;6.20;70.80;;;;;;5072521;28;20094;-67
2023/01/31 08:33:53;;;;;;;5.65;1.30;;;6.30;70.60;;;;;;5072132;28;20060;-67
2023/01/31 08:36:22;;;;;;;2.65;1.00;;;6.30;69.80;;;;;;5072876;28;20082;-68
2023/01/31 08:38:49;;;;;;;3.17;1.13;;;6.30;68.90;;;;;;5072560;28;20082;-67
2023/01/31 08:41:16;;;;;;;3.22;1.13;;;6.30;68.90;;;;;;5072721;28;20082;-67
2023/01/31 08:43:43;;;;;;;5.68;1.20;;;6.20;69.10;;;;;;5072571;28;20104;-67
2023/01/31 08:46:09;;;;;;;4.63;1.38;;;6.10;69.00;;;;;;5071853;28;20400;-67
2023/01/31 08:48:36;;;;;;;7.45;1.63;;;6.10;69.60;;;;;;5072126;28;20501;-67
2023/01/31 08:51:03;;;;;;;5.95;1.48;;;6.10;70.20;;;;;;5070711;28;20067;-66
2023/01/31 08:53:29;;;;;;;9.68;1.67;;;6.10;70.90;;;;;;5072126;28;20072;-67
2023/01/31 08:55:59;;;;;;;10.50;1.25;;;6.00;71.40;;;;;;5072078;28;20032;-67
2023/01/31 08:58:25;;;;;;;10.68;1.50;;;6.00;71.70;;;;;;5072472;28;20062;-67
2023/01/31 09:00:51;;;;;;;10.52;2.10;;;6.00;72.20;;;;;;5071888;28;20111;-69
2023/01/31 09:03:16;;;;;;;5.45;2.10;;;6.00;72.90;;;;;;5072630;28;20025;-67
2023/01/31 09:05:42;;;;;;;11.65;2.28;;;6.00;76.20;;;;;;5072275;28;20033;-68
2023/01/31 09:08:07;;;;;;;7.40;2.50;;;5.80;79.30;;;;;;5071645;28;20074;-68
2023/01/31 09:10:33;;;;;;;8.15;2.70;;;5.70;83.30;;;;;;5072480;28;20033;-67
2023/01/31 09:13:00;;;;;;;11.27;2.78;;;5.60;85.70;;;;;;5071619;28;20119;-68
2023/01/31 09:15:25;;;;;;;10.90;2.90;;;5.50;88.10;;;;;;5072154;28;20040;-67
2023/01/31 09:17:51;;;;;;;12.40;3.20;;;5.40;90.10;;;;;;5071887;28;20021;-68
2023/01/31 09:20:18;;;;;;;11.73;3.33;;;5.30;90.70;;;;;;5072198;28;20033;-67
2023/01/31 09:22:44;;;;;;;11.38;3.58;;;5.30;91.20;;;;;;5071959;28;20025;-67
2023/01/31 09:25:10;;;;;;;13.23;3.65;;;5.30;91.80;;;;;;5072577;28;20366;-66
2023/01/31 09:27:37;;;;;;;12.43;3.75;;;5.20;92.20;;;;;;5076129;28;20034;-68
2023/01/31 09:30:07;;;;;;;8.52;3.90;;;5.20;92.60;;;;;;5075499;28;20028;-66
2023/01/31 09:32:33;;;;;;;8.90;3.70;;;5.20;92.90;;;;;;5074624;28;20024;-67
2023/01/31 09:34:59;;;;;;;10.73;3.30;;;5.20;93.00;;;;;;5075069;28;20856;-66
2023/01/31 09:37:25;;;;;;;8.13;3.47;;;5.20;92.90;;;;;;5077079;28;20027;-69
2023/01/31 09:39:51;;;;;;;6.88;3.25;;;5.10;92.80;;;;;;5095609;28;20445;-67
2023/01/31 09:42:32;;;;;;;12.60;3.78;;;5.10;92.90;;;;;;5082036;28;20021;-66
2023/01/31 09:44:58;;;;;;;8.32;3.22;;;5.10;92.50;;;;;;5075333;28;20028;-67
2023/01/31 09:47:40;;;;;;;9.23;3.30;;;5.10;92.30;;;;;;5075688;28;20027;-67
2023/01/31 09:50:18;;;;;;;11.63;3.35;;;5.10;92.20;;;;;;5075191;28;20025;-67
2023/01/31 09:52:44;;;;;;;11.15;4.30;;;5.10;91.90;;;;;;5075624;28;20033;-67
2023/01/31 09:55:16;;;;;;;11.00;3.20;;;5.10;91.90;;;;;;5075090;28;20028;-66
2023/01/31 09:57:50;;;;;;;12.43;3.20;;;5.10;91.50;;;;;;5074108;28;20046;-66
2023/01/31 10:00:29;;;;;;;10.20;3.05;;;5.10;91.40;;;;;;5075007;28;20021;-68
2023/01/31 10:03:02;;;;;;;7.40;3.08;;;5.10;91.40;;;;;;5075002;28;20108;-70
2023/01/31 10:05:53;;;;;;;8.50;3.08;;;5.10;91.40;;;;;;5074974;28;20032;-66
2023/01/31 10:08:24;;;;;;;8.20;3.03;;;5.10;91.10;;;;;;5074575;28;20020;-68
2023/01/31 10:10:51;;;;;;;6.80;2.80;;;5.10;90.90;;;;;;5075173;28;20402;-67
2023/01/31 10:13:30;;;;;;;8.75;2.67;;;5.10;90.60;;;;;;5074401;28;20036;-67
2023/01/31 10:16:04;;;;;;;9.80;3.35;;;5.20;89.70;;;;;;5074985;28;20056;-72
2023/01/31 10:18:33;;;;;;;9.80;2.92;;;5.20;89.50;;;;;;5074866;28;20107;-67
2023/01/31 10:21:05;;;;;;;9.05;3.67;;;5.20;88.60;;;;;;5074597;28;20115;-68
2023/01/31 10:23:47;;;;;;;9.10;2.80;;;5.30;88.60;;;;;;5073707;28;20458;-67
2023/01/31 10:26:25;;;;;;;12.57;2.75;;;5.30;88.20;;;;;;5074671;28;20531;-67
2023/01/31 10:29:03;;;;;;;11.65;2.80;;;5.30;88.50;;;;;;5074841;28;20052;-67
2023/01/31 10:31:50;;;;;;;8.65;3.03;;;5.30;88.00;;;;;;5074828;28;20039;-67
2023/01/31 10:34:28;;;;;;;11.18;3.00;;;5.30;87.40;;;;;;5072908;28;20036;-67
2023/01/31 10:37:18;;;;;;;5.63;2.05;;;5.30;87.90;;;;;;5074409;28;20051;-67
2023/01/31 10:39:52;;;;;;;10.27;2.70;;;5.30;87.90;;;;;;5074560;28;20029;-66
2023/01/31 10:42:38;;;;;;;7.53;2.90;;;5.40;88.40;;;;;;5074312;28;20592;-67
2023/01/31 10:45:19;;;;;;;10.60;2.90;;;5.40;88.00;;;;;;5074138;28;20078;-67
2023/01/31 10:47:51;;;;;;;7.50;2.53;;;5.50;87.80;;;;;;5073204;28;20032;-67
2023/01/31 10:50:29;;;;;;;6.88;2.85;;;5.50;87.40;;;;;;5073965;28;20068;-67
2023/01/31 10:53:33;;;;;;;10.82;3.13;;;5.60;87.40;;;;;;5074285;28;20024;-67
2023/01/31 10:56:10;;;;;;;7.25;2.38;;;5.60;86.60;;;;;;5011911;28;20545;-72
2023/01/31 10:58:36;;;;;;;7.68;2.85;;;5.60;84.60;;;;;;5062180;28;20503;-68
2023/01/31 11:01:07;;;;;;;9.45;2.92;;;5.60;84.20;;;;;;5073429;28;20047;-68
2023/01/31 11:03:33;;;;;;;10.07;3.63;;;5.70;84.50;;;;;;5074115;28;20056;-67
2023/01/31 11:06:00;;;;;;;9.45;2.53;;;5.70;84.10;;;;;;5074005;28;20408;-67
2023/01/31 11:08:44;;;;;;;6.57;2.75;;;5.70;83.90;;;;;;5073662;28;20028;-67
2023/01/31 11:11:22;;;;;;;9.48;2.42;;;5.80;83.40;;;;;;5073833;28;20032;-68
2023/01/31 11:14:00;;;;;;;5.10;3.08;;;5.90;82.40;;;;;;5074419;28;20036;-68
2023/01/31 11:16:30;;;;;;;7.85;2.15;;;6.00;82.10;;;;;;5073861;28;20032;-67
2023/01/31 11:18:58;;;;;;;9.50;2.25;;;6.00;81.10;;;;;;5073388;28;20436;-67
2023/01/31 11:21:30;;;;;;;5.45;2.03;;;6.10;80.00;;;;;;5074050;28;20107;-68
2023/01/31 11:24:15;;;;;;;6.85;2.03;;;6.10;79.40;;;;;;5073975;28;20024;-68
2023/01/31 11:26:49;;;;;;;6.28;2.28;;;6.20;77.80;;;;;;5073646;28;20100;-68
2023/01/31 11:29:56;;;;;;;11.15;2.67;;;6.20;76.60;;;;;;5073503;28;20025;-67
2023/01/31 11:32:31;;;;;;;6.60;1.80;;;6.30;76.40;;;;;;5011417;28;20084;-67
2023/01/31 11:35:26;;;;;;;8.40;1.85;;;6.30;75.20;;;;;;4995161;28;20029;-67
2023/01/31 11:38:01;;;;;;;7.93;1.98;;;6.30;73.70;;;;;;4995220;28;20120;-67
2023/01/31 11:40:33;;;;;;;5.07;1.75;;;6.40;73.30;;;;;;5019688;28;20546;-67
2023/01/31 11:43:01;;;;;;;9.07;2.00;;;6.40;73.00;;;;;;5032262;28;20048;-67
2023/01/31 11:45:39;;;;;;;7.78;2.08;;;6.50;74.20;;;;;;5025681;28;20111;-67
2023/01/31 11:48:23;;;;;;;6.45;2.53;;;6.60;74.20;;;;;;5012496;28;20109;-68
2023/01/31 11:50:55;;;;;;;7.75;2.50;;;6.70;74.90;;;;;;5015284;28;20042;-67
2023/01/31 11:53:28;;;;;;;9.25;2.45;;;6.80;75.10;;;;;;5014295;28;20054;-67
2023/01/31 11:55:59;;;;;;;7.05;2.42;;;6.90;75.00;;;;;;5015026;28;20061;-66
2023/01/31 11:58:33;;;;;;;;;;;7.00;74.40;;;;;;5015636;28;20083;-67
2023/01/31 12:01:11;;;;;;;6.00;2.28;;;7.00;73.90;;;;;;5011479;28;20020;-67
2023/01/31 12:03:37;;;;;;;8.55;2.63;;;7.00;75.10;;;;;;5056700;28;20129;-67
2023/01/31 12:06:06;;;;;;;8.68;2.25;;;6.90;75.20;;;;;;5073056;28;20028;-67
2023/01/31 12:08:42;;;;;;;4.03;2.25;;;6.80;75.80;;;;;;5073308;28;20024;-67
2023/01/31 12:11:25;;;;;;;9.93;3.17;;;6.80;76.50;;;;;;5072556;28;20036;-68
2023/01/31 12:13:52;;;;;;;7.30;2.40;;;6.70;77.20;;;;;;5073004;28;20101;-66
2023/01/31 12:16:21;;;;;;;8.43;2.53;;;6.70;76.70;;;;;;5072504;28;20480;-67
2023/01/31 12:18:52;;;;;;;8.13;3.05;;;6.70;76.90;;;;;;5073024;28;20025;-67
2023/01/31 12:21:26;;;;;;;8.85;2.50;;;6.60;77.50;;;;;;5072198;28;20035;-67
2023/01/31 12:24:13;;;;;;;6.88;2.63;;;6.50;77.60;;;;;;5072777;28;20024;-68
2023/01/31 12:26:49;;;;;;;7.82;2.67;;;6.40;78.60;;;;;;5072903;28;20021;-67
2023/01/31 12:29:33;;;;;;;7.63;2.60;;;6.30;79.00;;;;;;5072300;28;20031;-66
2023/01/31 12:32:20;;;;;;;10.40;2.60;;;6.20;79.30;;;;;;5072632;28;20071;-67
2023/01/31 12:35:11;;;;;;;7.30;2.60;;;6.10;80.30;;;;;;5072632;28;20025;-66
2023/01/31 12:37:56;;;;;;;16.13;3.17;;;6.10;80.70;;;;;;5072851;28;20028;-67
2023/01/31 12:40:28;;;;;;;15.30;3.78;;;6.10;80.40;;;;;;5071845;28;20052;-66
2023/01/31 12:43:03;;;;;;;8.40;2.88;;;6.10;80.40;;;;;;5072169;28;20024;-67
2023/01/31 12:45:52;;;;;;;8.20;2.45;;;6.00;80.70;;;;;;5072212;28;20029;-67
2023/01/31 12:48:36;;;;;;;8.93;2.53;;;6.00;80.10;;;;;;5072262;28;20040;-69
2023/01/31 12:51:38;;;;;;;11.38;2.70;;;6.00;80.20;;;;;;5072261;28;20032;-67
2023/01/31 12:54:23;;;;;;;8.93;2.70;;;5.90;80.90;;;;;;5072503;28;20035;-67
2023/01/31 12:57:06;;;;;;;12.23;3.22;;;5.90;80.60;;;;;;5072384;28;20025;-67
2023/01/31 12:59:44;;;;;;;7.68;2.50;;;5.90;79.70;;;;;;5072168;28;20380;-67
2023/01/31 13:02:25;;;;;;;7.43;2.83;;;6.00;79.60;;;;;;5075801;28;20113;-66
2023/01/31 13:04:58;;;;;;;9.20;2.80;;;5.90;79.70;;;;;;5076632;28;20056;-66
2023/01/31 13:07:37;;;;;;;8.82;2.83;;;6.00;79.60;;;;;;5075811;28;20107;-67
2023/01/31 13:10:14;;;;;;;5.93;2.70;;;6.00;77.70;;;;;;5076204;28;20385;-68
2023/01/31 13:12:40;;;;;;;8.50;2.58;;;6.00;77.30;;;;;;5076426;28;20421;-66
2023/01/31 13:15:15;;;;;;;7.68;2.60;;;6.00;77.70;;;;;;5076287;28;20024;-67
2023/01/31 13:17:43;;;;;;;9.88;2.88;;;6.00;77.10;;;;;;5076178;28;20115;-68
2023/01/31 13:20:27;;;;;;;10.75;3.22;;;6.00;77.20;;;;;;5076180;28;20028;-66
2023/01/31 13:22:57;;;;;;;12.23;2.38;;;6.10;77.60;;;;;;5075996;28;20062;-67
2023/01/31 13:25:53;;;;;;;10.35;2.95;;;6.00;77.30;;;;;;5075692;28;20020;-66